Time;durP1;ratioP1;P1;durP2;ratioP2;P2;SDS_P1;SDS_P2;PMS_P1;PMS_P2;Temp;Humidity;BMP_temperature;BMP_pressure;BME280_temperature;BME280_humidity;BME280_pressure;Samples;Min_cycle;Max_cycle;Signal;HPM_P1;HPM_P2
2022/11/10 00:00:21;;;;;;;1.10;0.80;;;23.10;93.20;;;;;;5028369;28;20462;-42
2022/11/10 00:02:49;;;;;;;1.10;0.80;;;23.00;93.30;;;;;;5020294;28;20471;-43
2022/11/10 00:05:16;;;;;;;1.30;0.90;;;23.00;93.40;;;;;;5017040;28;20468;-42
2022/11/10 00:07:42;;;;;;;1.23;0.80;;;22.90;93.50;;;;;;5029045;28;20465;-42
2022/11/10 00:10:10;;;;;;;1.10;0.80;;;22.90;93.60;;;;;;5028118;28;20698;-43
2022/11/10 00:12:37;;;;;;;1.67;0.87;;;22.80;93.60;;;;;;5026701;28;20459;-42
2022/11/10 00:17:49;;;;;;;1.23;0.80;;;22.70;93.90;;;;;;4999351;28;21020;-47
2022/11/10 00:20:16;;;;;;;1.10;0.90;;;22.70;94.00;;;;;;5026566;28;20458;-44
2022/11/10 00:22:42;;;;;;;1.73;0.93;;;22.60;94.10;;;;;;5022554;28;20455;-43
2022/11/10 00:25:09;;;;;;;1.77;1.00;;;22.60;94.20;;;;;;5029409;28;20974;-42
2022/11/10 00:27:36;;;;;;;1.07;0.80;;;22.60;94.20;;;;;;5022183;28;20553;-43
2022/11/10 00:30:03;;;;;;;1.10;0.80;;;22.50;94.30;;;;;;5024460;28;20454;-43
2022/11/10 00:32:30;;;;;;;1.10;0.80;;;22.50;94.40;;;;;;5025881;28;20686;-42
2022/11/10 00:34:58;;;;;;;1.10;0.90;;;22.50;94.50;;;;;;5024282;28;20822;-43
2022/11/10 00:37:24;;;;;;;1.30;0.80;;;22.50;94.50;;;;;;5027579;28;20505;-42
2022/11/10 00:39:51;;;;;;;1.20;0.70;;;22.50;94.40;;;;;;5027015;28;20462;-43
2022/11/10 00:42:18;;;;;;;1.20;0.80;;;22.60;94.30;;;;;;5023548;28;20462;-42
2022/11/10 00:44:45;;;;;;;1.20;0.80;;;22.60;94.30;;;;;;5025845;28;20985;-43
2022/11/10 00:47:13;;;;;;;1.73;0.80;;;22.60;94.30;;;;;;5025865;28;20551;-45
2022/11/10 00:49:39;;;;;;;1.00;0.80;;;22.60;94.30;;;;;;5025002;28;20490;-42
2022/11/10 00:52:07;;;;;;;1.43;0.80;;;22.50;94.40;;;;;;5023223;28;20460;-42
2022/11/10 00:54:34;;;;;;;1.20;0.90;;;22.40;94.40;;;;;;5028539;28;20459;-42
2022/11/10 00:57:01;;;;;;;1.23;0.97;;;22.50;94.50;;;;;;5028933;28;20457;-43
2022/11/10 00:59:27;;;;;;;1.80;0.80;;;22.50;94.50;;;;;;5022621;28;20453;-45
2022/11/10 01:01:54;;;;;;;1.87;0.80;;;22.40;94.50;;;;;;5026684;28;20458;-43
2022/11/10 01:04:21;;;;;;;1.20;0.77;;;22.40;94.60;;;;;;5025887;28;20462;-43
2022/11/10 01:06:47;;;;;;;1.10;0.77;;;22.40;94.60;;;;;;5029822;28;20455;-42
2022/11/10 01:09:16;;;;;;;1.33;0.80;;;22.40;94.60;;;;;;5025268;28;20553;-43
2022/11/10 01:11:42;;;;;;;1.53;0.90;;;22.40;94.60;;;;;;5023192;28;20466;-41
2022/11/10 01:14:09;;;;;;;1.10;0.70;;;22.40;94.70;;;;;;5022404;28;20462;-42
2022/11/10 01:16:36;;;;;;;1.57;0.97;;;22.30;94.70;;;;;;5025974;28;20834;-43
2022/11/10 01:19:03;;;;;;;2.13;0.87;;;22.30;94.70;;;;;;5025624;28;20486;-42
2022/11/10 01:21:30;;;;;;;1.77;0.97;;;22.20;94.80;;;;;;5025490;28;20473;-42
2022/11/10 01:23:57;;;;;;;0.90;0.60;;;22.20;94.90;;;;;;5023423;28;20454;-42
2022/11/10 01:26:25;;;;;;;1.20;0.83;;;22.20;94.90;;;;;;5028989;28;20463;-42
2022/11/10 01:28:52;;;;;;;2.10;1.00;;;22.20;95.00;;;;;;5017509;28;20467;-43
2022/11/10 01:31:21;;;;;;;1.50;0.90;;;22.20;95.10;;;;;;5024627;28;20466;-44
2022/11/10 01:33:47;;;;;;;1.30;0.80;;;22.20;95.10;;;;;;5026486;28;20462;-42
2022/11/10 01:36:14;;;;;;;1.10;0.70;;;22.10;95.10;;;;;;5026615;28;20467;-42
2022/11/10 01:38:42;;;;;;;1.13;0.80;;;22.10;95.20;;;;;;5025567;28;20478;-44
2022/11/10 01:41:12;;;;;;;1.30;0.80;;;22.10;95.30;;;;;;5023935;28;20469;-42
2022/11/10 01:43:40;;;;;;;1.20;0.90;;;22.10;95.40;;;;;;5028167;28;20458;-42
2022/11/10 01:46:08;;;;;;;1.37;0.80;;;22.00;95.40;;;;;;5025287;28;20462;-42
2022/11/10 01:48:39;;;;;;;1.10;0.80;;;22.00;95.50;;;;;;5022964;28;20800;-42
2022/11/10 01:51:14;;;;;;;1.53;0.80;;;22.00;95.60;;;;;;5021715;28;20465;-43
2022/11/10 01:53:44;;;;;;;1.40;0.80;;;21.90;95.60;;;;;;5021640;28;20829;-42
2022/11/10 01:56:13;;;;;;;1.43;0.80;;;21.90;95.70;;;;;;5027876;28;20454;-42
2022/11/10 01:58:47;;;;;;;1.03;0.70;;;21.90;95.80;;;;;;5022737;28;20874;-42
2022/11/10 02:01:14;;;;;;;3.17;1.23;;;21.80;95.90;;;;;;5031333;28;20473;-42
2022/11/10 02:03:44;;;;;;;1.13;0.80;;;21.80;96.00;;;;;;5018037;28;20215;-43
2022/11/10 02:06:12;;;;;;;1.20;0.70;;;21.80;96.10;;;;;;5031183;28;20462;-42
2022/11/10 02:08:41;;;;;;;1.00;0.70;;;21.70;96.20;;;;;;5030492;28;20207;-42
2022/11/10 02:11:07;;;;;;;1.07;0.70;;;21.70;96.20;;;;;;5031661;28;20191;-42
2022/11/10 02:13:34;;;;;;;1.42;0.80;;;21.70;96.30;;;;;;5019502;28;20459;-42
2022/11/10 02:16:02;;;;;;;1.20;0.80;;;21.70;96.50;;;;;;5027889;28;20192;-42
2022/11/10 02:18:29;;;;;;;1.00;0.70;;;21.70;96.60;;;;;;5027295;28;20227;-42
2022/11/10 02:20:57;;;;;;;1.55;0.95;;;21.60;96.60;;;;;;5026054;28;20466;-42
2022/11/10 02:23:45;;;;;;;1.52;0.85;;;21.60;96.70;;;;;;5028015;28;20192;-42
2022/11/10 02:26:12;;;;;;;1.10;0.80;;;21.50;96.80;;;;;;5030049;28;20196;-41
2022/11/10 02:28:39;;;;;;;1.10;0.80;;;21.50;96.90;;;;;;5031186;28;20199;-42
2022/11/10 02:31:08;;;;;;;1.00;0.80;;;21.50;97.00;;;;;;5029549;28;20228;-42
2022/11/10 02:33:35;;;;;;;1.23;0.80;;;21.50;97.10;;;;;;5023436;28;20451;-43
2022/11/10 02:36:03;;;;;;;1.35;0.85;;;21.50;97.50;;;;;;5022109;28;20196;-42
2022/11/10 02:38:30;;;;;;;1.10;0.98;;;21.40;97.20;;;;;;5023442;28;20242;-43
2022/11/10 02:40:57;;;;;;;1.10;0.80;;;21.40;97.30;;;;;;5027099;28;20199;-43
2022/11/10 02:43:23;;;;;;;1.65;0.80;;;21.40;97.40;;;;;;5026339;28;20658;-41
2022/11/10 02:45:50;;;;;;;1.20;0.90;;;21.30;97.50;;;;;;5026910;28;20207;-43
2022/11/10 02:48:17;;;;;;;1.10;0.80;;;21.30;97.60;;;;;;5022696;28;20196;-43
2022/11/10 02:50:44;;;;;;;1.40;1.30;;;21.30;97.70;;;;;;5023052;28;20586;-42
2022/11/10 02:53:12;;;;;;;1.63;0.75;;;21.30;97.80;;;;;;5027052;28;20196;-43
2022/11/10 02:55:39;;;;;;;1.95;0.90;;;21.20;97.90;;;;;;5028751;28;20602;-43
2022/11/10 02:58:06;;;;;;;0.95;0.70;;;21.20;98.00;;;;;;5016569;28;20234;-42
2022/11/10 03:00:32;;;;;;;1.00;0.77;;;21.20;98.10;;;;;;5027476;28;20191;-41
2022/11/10 03:03:01;;;;;;;1.65;1.00;;;21.20;98.10;;;;;;5024449;28;20195;-44
2022/11/10 03:05:28;;;;;;;1.00;0.82;;;21.10;98.20;;;;;;5029098;28;20188;-45
2022/11/10 03:07:55;;;;;;;1.17;0.80;;;21.10;98.30;;;;;;5027276;28;20196;-42
2022/11/10 03:10:23;;;;;;;1.15;0.80;;;21.10;98.40;;;;;;5023774;28;20467;-43
2022/11/10 03:12:53;;;;;;;1.10;0.80;;;21.10;98.50;;;;;;5025970;28;20212;-42
2022/11/10 03:15:20;;;;;;;1.75;1.25;;;21.10;98.60;;;;;;5021920;28;20571;-42
2022/11/10 03:17:46;;;;;;;1.15;0.70;;;21.00;98.60;;;;;;5025808;28;20212;-42
2022/11/10 03:20:14;;;;;;;1.50;0.90;;;21.00;98.70;;;;;;5021019;28;20207;-42
2022/11/10 03:22:41;;;;;;;1.30;0.77;;;21.00;98.80;;;;;;5029535;28;20624;-42
2022/11/10 03:25:09;;;;;;;1.00;0.88;;;21.00;98.90;;;;;;5023480;28;20463;-43
2022/11/10 03:27:37;;;;;;;1.10;0.75;;;20.90;99.00;;;;;;5028701;28;20755;-42
2022/11/10 03:30:05;;;;;;;1.13;0.90;;;20.90;99.10;;;;;;5024887;28;20199;-45
2022/11/10 03:32:32;;;;;;;1.20;0.88;;;20.80;99.20;;;;;;5023306;28;20207;-42
2022/11/10 03:34:59;;;;;;;1.00;0.80;;;20.80;99.20;;;;;;5029256;28;20274;-42
2022/11/10 03:37:25;;;;;;;1.05;0.80;;;20.80;99.40;;;;;;5028885;28;20191;-42
2022/11/10 03:39:52;;;;;;;1.15;0.80;;;20.80;99.50;;;;;;5030354;28;20223;-42
2022/11/10 03:42:19;;;;;;;1.17;0.80;;;20.70;99.50;;;;;;5023307;28;20212;-42
2022/11/10 03:44:47;;;;;;;1.25;0.93;;;20.70;99.60;;;;;;5030931;28;20199;-42
2022/11/10 03:47:13;;;;;;;1.10;0.90;;;20.70;99.70;;;;;;5027116;28;20196;-42
2022/11/10 03:49:40;;;;;;;1.10;0.80;;;20.70;99.80;;;;;;5024076;28;20196;-43
2022/11/10 03:52:07;;;;;;;1.35;0.98;;;20.70;99.90;;;;;;5029386;28;20766;-42
2022/11/10 03:54:33;;;;;;;1.20;0.80;;;20.70;99.90;;;;;;5030551;28;20544;-42
2022/11/10 03:57:00;;;;;;;1.30;1.17;;;20.60;99.90;;;;;;5024286;28;20219;-43
2022/11/10 03:59:27;;;;;;;1.40;0.93;;;20.60;99.90;;;;;;5012433;28;20224;-42
2022/11/10 04:01:55;;;;;;;1.20;0.70;;;20.60;99.90;;;;;;5025097;28;20195;-45
2022/11/10 04:09:50;;;;;;;1.30;0.90;;;20.50;99.90;;;;;;5026261;28;20211;-43
2022/11/10 04:17:50;;;;;;;1.00;0.70;;;20.40;99.90;;;;;;5022595;28;20257;-42
2022/11/10 04:20:17;;;;;;;1.05;0.80;;;20.50;99.90;;;;;;5020636;28;20203;-44
2022/11/10 04:25:28;;;;;;;1.20;0.80;;;20.40;99.90;;;;;;5024341;28;20211;-43
2022/11/10 04:27:55;;;;;;;0.90;0.70;;;20.40;99.90;;;;;;5023731;28;20199;-43
2022/11/10 04:30:21;;;;;;;1.40;1.23;;;20.40;99.90;;;;;;5019684;28;20203;-42
2022/11/10 04:32:53;;;;;;;1.10;0.70;;;20.30;99.90;;;;;;5026275;28;20671;-43
2022/11/10 04:35:19;;;;;;;1.10;0.88;;;20.30;99.90;;;;;;5027025;28;20196;-43
2022/11/10 04:37:46;;;;;;;1.17;0.82;;;20.30;99.90;;;;;;5028091;28;20200;-42
2022/11/10 04:40:13;;;;;;;1.17;1.00;;;20.60;99.90;;;;;;5026690;28;20238;-42
2022/11/10 04:42:39;;;;;;;1.73;0.75;;;20.90;99.90;;;;;;5020651;28;20208;-43
2022/11/10 04:45:07;;;;;;;1.10;0.70;;;21.00;99.90;;;;;;5020409;28;20533;-43
2022/11/10 04:47:34;;;;;;;1.00;0.70;;;21.20;99.90;;;;;;5017070;28;20482;-42
2022/11/10 04:50:02;;;;;;;1.50;0.97;;;21.30;99.90;;;;;;5014026;28;20200;-42
2022/11/10 04:52:28;;;;;;;1.00;0.80;;;21.30;99.80;;;;;;5026130;28;20458;-42
2022/11/10 04:54:55;;;;;;;1.37;0.80;;;21.40;99.50;;;;;;5027997;28;20829;-43
2022/11/10 04:57:22;;;;;;;1.00;0.80;;;21.50;99.30;;;;;;5018416;28;20482;-42
2022/11/10 04:59:48;;;;;;;1.30;0.90;;;21.60;99.20;;;;;;5017971;28;20478;-45
2022/11/10 05:02:16;;;;;;;1.00;0.80;;;21.60;99.00;;;;;;5024526;28;20465;-42
2022/11/10 05:04:43;;;;;;;2.27;0.83;;;21.70;98.70;;;;;;5018932;28;20500;-43
2022/11/10 05:07:11;;;;;;;0.87;0.60;;;21.70;98.60;;;;;;5024260;28;20763;-44
2022/11/10 05:09:37;;;;;;;1.00;0.90;;;21.70;98.60;;;;;;5026528;28;20473;-42
2022/11/10 05:12:04;;;;;;;1.50;1.00;;;21.70;98.50;;;;;;5025370;28;20455;-42
2022/11/10 05:14:31;;;;;;;1.20;0.80;;;21.80;98.40;;;;;;5024470;28;20458;-42
2022/11/10 05:16:58;;;;;;;1.40;1.10;;;21.90;98.10;;;;;;5020068;28;21022;-42
2022/11/10 05:19:24;;;;;;;1.00;0.70;;;22.00;98.00;;;;;;5023242;28;20517;-43
2022/11/10 05:21:51;;;;;;;1.53;0.87;;;22.00;97.90;;;;;;5026107;28;20466;-42
2022/11/10 05:24:19;;;;;;;1.20;0.70;;;22.00;97.80;;;;;;5027769;28;20509;-43
2022/11/10 05:26:45;;;;;;;1.13;0.80;;;21.90;97.80;;;;;;5019727;28;20462;-42
2022/11/10 05:29:12;;;;;;;1.00;0.73;;;21.90;97.80;;;;;;5023574;28;20471;-43
2022/11/10 05:31:39;;;;;;;1.33;0.90;;;21.90;97.80;;;;;;5025780;28;20458;-46
2022/11/10 05:34:05;;;;;;;1.30;0.80;;;21.90;97.90;;;;;;5023983;28;20455;-42
2022/11/10 05:36:32;;;;;;;0.93;0.73;;;21.90;97.90;;;;;;5032171;28;20458;-43
2022/11/10 05:38:59;;;;;;;1.37;0.80;;;21.80;97.80;;;;;;5029000;28;20481;-42
2022/11/10 05:41:27;;;;;;;0.90;0.80;;;21.80;97.80;;;;;;5029385;28;20552;-42
2022/11/10 05:43:53;;;;;;;1.20;0.90;;;21.80;97.80;;;;;;5022115;28;20454;-42
2022/11/10 05:46:20;;;;;;;1.10;0.80;;;21.80;97.80;;;;;;5031124;28;20465;-42
2022/11/10 05:48:47;;;;;;;1.30;0.87;;;21.80;97.80;;;;;;5024372;28;20480;-42
2022/11/10 05:51:14;;;;;;;1.40;0.87;;;21.80;97.90;;;;;;5022721;28;20458;-42
2022/11/10 05:53:40;;;;;;;1.17;0.73;;;21.80;97.80;;;;;;5028918;28;20458;-44
2022/11/10 05:56:07;;;;;;;1.63;0.90;;;21.80;97.80;;;;;;5030215;28;20458;-42
2022/11/10 05:58:35;;;;;;;1.20;0.83;;;21.80;97.80;;;;;;5025755;28;20482;-43
2022/11/10 06:01:02;;;;;;;1.00;0.73;;;21.80;97.80;;;;;;5024380;28;20958;-42
2022/11/10 06:03:29;;;;;;;0.90;0.70;;;21.80;97.80;;;;;;5031654;28;20465;-43
2022/11/10 06:05:55;;;;;;;1.00;0.80;;;21.90;97.70;;;;;;5027662;28;20533;-42
2022/11/10 06:08:22;;;;;;;1.43;0.80;;;22.00;97.50;;;;;;5031583;28;20469;-43
2022/11/10 06:10:49;;;;;;;1.63;0.90;;;22.10;97.40;;;;;;5027048;28;20466;-42
2022/11/10 06:13:16;;;;;;;1.00;0.80;;;22.10;97.20;;;;;;5025392;28;20873;-42
2022/11/10 06:15:44;;;;;;;1.00;0.80;;;22.20;97.10;;;;;;5025550;28;21092;-42
2022/11/10 06:18:10;;;;;;;0.97;0.70;;;22.20;96.90;;;;;;5028331;28;20489;-42
2022/11/10 06:20:37;;;;;;;1.10;0.87;;;22.30;96.80;;;;;;5024788;28;20478;-42
2022/11/10 06:23:05;;;;;;;1.30;0.80;;;22.30;96.60;;;;;;5031331;28;20450;-42
2022/11/10 06:25:34;;;;;;;1.00;0.70;;;22.40;96.80;;;;;;5029366;28;20466;-42
2022/11/10 06:28:02;;;;;;;1.10;0.83;;;22.40;96.70;;;;;;5030506;28;20466;-42
2022/11/10 06:30:30;;;;;;;1.20;0.87;;;22.40;96.30;;;;;;5018011;28;20458;-43
2022/11/10 06:32:58;;;;;;;0.90;0.67;;;22.40;96.30;;;;;;5026644;28;20459;-42
2022/11/10 06:35:25;;;;;;;1.60;0.80;;;22.30;96.30;;;;;;5027631;28;20455;-42
2022/11/10 06:38:00;;;;;;;1.10;0.77;;;22.30;96.30;;;;;;5028656;28;20454;-43
2022/11/10 06:40:27;;;;;;;2.27;0.90;;;22.30;96.40;;;;;;5029472;28;20482;-42
2022/11/10 06:42:54;;;;;;;1.30;0.70;;;22.20;96.40;;;;;;5027094;28;20469;-42
2022/11/10 06:45:21;;;;;;;1.20;0.70;;;22.20;96.40;;;;;;5028666;28;20473;-42
2022/11/10 06:47:48;;;;;;;1.00;0.80;;;22.20;96.40;;;;;;5028688;28;20458;-42
2022/11/10 06:50:16;;;;;;;1.67;1.00;;;22.20;96.50;;;;;;5024902;28;20460;-42
2022/11/10 06:52:43;;;;;;;1.13;0.93;;;22.20;96.40;;;;;;5030252;28;20462;-41
2022/11/10 06:55:10;;;;;;;0.90;0.70;;;22.30;96.30;;;;;;5025933;28;20554;-44
2022/11/10 06:57:40;;;;;;;1.10;0.80;;;22.30;96.30;;;;;;5025754;28;20455;-42
2022/11/10 07:00:08;;;;;;;1.00;0.77;;;22.30;96.20;;;;;;5028297;28;20977;-44
2022/11/10 07:02:35;;;;;;;0.90;0.67;;;22.30;96.00;;;;;;5026419;28;20977;-44
2022/11/10 07:05:01;;;;;;;1.10;0.80;;;22.40;96.00;;;;;;5024477;28;20450;-43
2022/11/10 07:07:29;;;;;;;1.40;0.90;;;22.40;95.90;;;;;;5028415;28;20469;-44
2022/11/10 07:09:56;;;;;;;1.27;0.80;;;22.40;95.90;;;;;;5022630;28;20466;-43
2022/11/10 07:12:23;;;;;;;1.10;0.83;;;22.40;95.80;;;;;;5027777;28;20459;-43
2022/11/10 07:14:49;;;;;;;0.90;0.70;;;22.50;95.70;;;;;;5016386;28;20455;-44
2022/11/10 07:17:16;;;;;;;1.20;0.90;;;22.50;95.60;;;;;;5029660;28;20894;-43
2022/11/10 07:19:43;;;;;;;1.00;0.90;;;22.60;95.50;;;;;;5018928;28;20866;-43
2022/11/10 07:22:09;;;;;;;0.90;0.77;;;22.70;95.40;;;;;;5030319;28;20851;-43
2022/11/10 07:24:37;;;;;;;1.00;0.80;;;22.70;95.20;;;;;;5029371;28;20469;-44
2022/11/10 07:27:04;;;;;;;1.30;0.90;;;22.70;95.10;;;;;;5021591;28;20466;-44
2022/11/10 07:29:31;;;;;;;1.00;0.80;;;22.70;95.00;;;;;;5027543;28;20458;-44
2022/11/10 07:31:57;;;;;;;1.27;1.00;;;22.80;94.90;;;;;;5026110;28;20455;-44
2022/11/10 07:34:24;;;;;;;1.73;1.00;;;22.80;94.90;;;;;;5024618;28;20460;-43
2022/11/10 07:36:51;;;;;;;0.90;0.70;;;22.70;94.80;;;;;;5026947;28;20458;-43
2022/11/10 07:39:17;;;;;;;1.17;0.90;;;22.80;94.80;;;;;;5022833;28;20470;-43
2022/11/10 07:41:45;;;;;;;1.10;0.70;;;22.70;94.70;;;;;;5024127;28;20470;-43
2022/11/10 07:44:12;;;;;;;0.90;0.70;;;22.70;94.70;;;;;;5021704;28;20536;-42
2022/11/10 07:46:39;;;;;;;1.17;0.70;;;22.80;94.80;;;;;;5027745;28;20463;-44
2022/11/10 07:49:05;;;;;;;0.97;0.70;;;22.70;94.70;;;;;;5022204;28;20834;-42
2022/11/10 07:51:32;;;;;;;1.00;0.70;;;22.80;94.70;;;;;;5018905;28;20463;-45
2022/11/10 07:53:59;;;;;;;0.90;0.70;;;22.70;94.60;;;;;;5024797;28;20826;-43
2022/11/10 07:56:27;;;;;;;1.20;0.77;;;22.70;94.70;;;;;;5028065;28;20830;-44
2022/11/10 07:58:55;;;;;;;1.40;0.70;;;22.70;94.70;;;;;;5025838;28;20821;-43
2022/11/10 08:01:21;;;;;;;1.10;0.90;;;22.70;94.70;;;;;;5026865;28;20466;-42
2022/11/10 08:03:48;;;;;;;1.40;0.73;;;22.70;94.70;;;;;;5020125;28;20474;-43
2022/11/10 08:06:15;;;;;;;0.90;0.70;;;22.70;94.70;;;;;;5020266;28;20959;-42
2022/11/10 08:08:41;;;;;;;1.40;0.77;;;22.70;94.60;;;;;;5028936;28;20453;-43
2022/11/10 08:11:08;;;;;;;1.13;0.70;;;22.70;94.50;;;;;;5025031;28;20468;-43
2022/11/10 08:13:35;;;;;;;1.23;0.73;;;22.70;94.50;;;;;;5019682;28;20467;-43
2022/11/10 08:16:03;;;;;;;2.80;0.77;;;22.80;94.50;;;;;;5022875;28;20466;-43
2022/11/10 08:18:29;;;;;;;0.90;0.70;;;22.80;94.40;;;;;;5028134;28;20485;-44
2022/11/10 08:20:56;;;;;;;0.90;0.70;;;22.80;94.40;;;;;;5026829;28;20489;-43
2022/11/10 08:23:23;;;;;;;0.90;0.70;;;22.80;94.30;;;;;;5027122;28;20466;-43
2022/11/10 08:25:52;;;;;;;2.10;1.03;;;22.80;94.30;;;;;;5016946;28;20466;-43
2022/11/10 08:28:19;;;;;;;1.57;1.00;;;22.80;94.30;;;;;;5026035;28;20554;-44
2022/11/10 08:30:47;;;;;;;1.20;0.70;;;22.80;94.30;;;;;;5022296;28;20481;-44
2022/11/10 08:33:17;;;;;;;1.33;0.80;;;22.90;94.70;;;;;;5021093;28;20467;-44
2022/11/10 08:35:46;;;;;;;0.93;0.70;;;22.90;94.30;;;;;;5027647;28;20462;-44
2022/11/10 08:38:15;;;;;;;1.10;0.80;;;22.90;94.30;;;;;;5025154;28;20541;-43
2022/11/10 08:40:43;;;;;;;1.20;1.03;;;22.90;94.20;;;;;;5025871;28;20897;-43
2022/11/10 08:43:10;;;;;;;1.10;0.70;;;23.00;94.20;;;;;;5028493;28;20506;-43
2022/11/10 08:45:39;;;;;;;1.27;0.87;;;23.00;94.10;;;;;;5027140;28;20463;-44
2022/11/10 08:48:07;;;;;;;2.17;1.00;;;23.00;94.10;;;;;;5024964;28;20467;-43
2022/11/10 08:50:36;;;;;;;0.90;0.70;;;23.10;94.00;;;;;;5023750;28;20465;-43
2022/11/10 08:53:04;;;;;;;1.60;0.80;;;23.10;94.00;;;;;;5018544;28;20456;-44
2022/11/10 08:55:31;;;;;;;1.33;0.70;;;23.10;94.00;;;;;;5024569;28;20462;-44
2022/11/10 08:58:02;;;;;;;1.63;0.97;;;23.20;93.90;;;;;;5021627;28;20481;-43
2022/11/10 09:00:30;;;;;;;1.00;0.73;;;23.10;93.70;;;;;;5024033;28;20888;-44
2022/11/10 09:03:02;;;;;;;1.30;0.90;;;23.20;93.60;;;;;;5027579;28;20454;-43
2022/11/10 09:05:29;;;;;;;3.10;0.80;;;23.20;93.40;;;;;;5026079;28;20461;-43
2022/11/10 09:07:57;;;;;;;2.30;0.90;;;23.20;93.30;;;;;;5032515;28;20459;-43
2022/11/10 09:10:24;;;;;;;1.87;0.70;;;23.20;93.40;;;;;;5028841;28;20470;-43
2022/11/10 09:12:50;;;;;;;2.60;2.40;;;23.20;93.40;;;;;;5023761;28;20775;-43
2022/11/10 09:15:18;;;;;;;1.90;0.97;;;23.30;93.30;;;;;;5027627;28;20469;-44
2022/11/10 09:17:45;;;;;;;2.47;1.00;;;23.30;93.50;;;;;;5025438;28;20478;-43
2022/11/10 09:20:12;;;;;;;1.53;0.83;;;23.30;93.40;;;;;;5022017;28;20834;-43
2022/11/10 09:22:39;;;;;;;3.50;1.03;;;23.30;93.30;;;;;;5024986;28;21200;-42
2022/11/10 09:25:08;;;;;;;15.43;1.93;;;23.30;93.30;;;;;;5027881;28;20458;-42
2022/11/10 09:27:38;;;;;;;2.63;1.00;;;23.30;93.20;;;;;;5027086;28;20957;-42
2022/11/10 09:30:06;;;;;;;2.40;0.90;;;23.30;92.90;;;;;;5026958;28;20458;-45
2022/11/10 09:32:33;;;;;;;3.57;1.23;;;23.40;93.20;;;;;;5027761;28;20457;-43
2022/11/10 09:35:01;;;;;;;6.03;1.07;;;23.40;93.30;;;;;;5021533;28;20451;-43
2022/11/10 09:37:28;;;;;;;2.80;1.27;;;23.40;93.20;;;;;;5030033;28;20465;-44
2022/11/10 09:39:54;;;;;;;1.20;0.83;;;23.40;93.30;;;;;;5024974;28;20841;-43
2022/11/10 09:42:30;;;;;;;2.10;1.00;;;23.40;93.30;;;;;;5022686;28;20467;-45
2022/11/10 09:45:03;;;;;;;1.60;1.10;;;23.40;93.10;;;;;;5020511;28;20642;-42
2022/11/10 09:47:40;;;;;;;3.40;1.10;;;23.40;93.20;;;;;;5027878;28;20524;-45
2022/11/10 09:50:10;;;;;;;1.20;0.80;;;23.40;93.10;;;;;;5022966;28;20825;-42
2022/11/10 09:52:39;;;;;;;2.37;0.93;;;23.40;93.10;;;;;;5028974;28;20538;-42
2022/11/10 09:55:20;;;;;;;2.40;1.20;;;23.50;92.90;;;;;;5027225;28;20830;-44
2022/11/10 09:57:51;;;;;;;2.53;1.03;;;23.50;92.80;;;;;;5022764;28;20459;-43
2022/11/10 10:00:18;;;;;;;4.47;1.20;;;23.50;92.70;;;;;;5018521;28;20482;-44
2022/11/10 10:02:51;;;;;;;1.50;0.87;;;23.50;92.60;;;;;;5025038;28;20950;-42
2022/11/10 10:05:40;;;;;;;1.33;0.80;;;23.50;92.50;;;;;;5020006;28;20461;-44
2022/11/10 10:08:10;;;;;;;2.07;0.70;;;23.50;92.50;;;;;;5021312;28;20467;-42
2022/11/10 10:10:41;;;;;;;3.60;1.00;;;23.50;92.40;;;;;;5021514;28;20541;-42
2022/11/10 10:13:46;;;;;;;1.67;0.80;;;23.50;92.30;;;;;;5019101;28;20474;-42
2022/11/10 10:16:20;;;;;;;1.87;0.93;;;23.50;92.30;;;;;;5025337;28;20485;-44
2022/11/10 10:18:54;;;;;;;1.43;1.00;;;23.50;92.20;;;;;;5021481;28;20451;-43
2022/11/10 10:21:39;;;;;;;3.87;0.83;;;23.50;92.10;;;;;;5022768;28;20481;-42
2022/11/10 10:24:12;;;;;;;3.23;1.10;;;23.50;92.00;;;;;;5028409;28;20455;-44
2022/11/10 10:26:42;;;;;;;2.50;0.90;;;23.50;92.00;;;;;;5030155;28;20939;-42
2022/11/10 10:29:17;;;;;;;1.73;0.80;;;23.50;91.90;;;;;;5029487;28;20466;-46
2022/11/10 10:31:47;;;;;;;1.90;1.00;;;23.60;91.90;;;;;;5024718;28;20466;-45
2022/11/10 10:34:17;;;;;;;1.40;1.10;;;23.50;91.80;;;;;;5021830;28;20463;-44
2022/11/10 10:36:44;;;;;;;1.70;1.10;;;23.60;91.80;;;;;;5030515;28;20454;-43
2022/11/10 10:39:14;;;;;;;3.10;1.50;;;23.60;91.70;;;;;;5029822;28;20463;-42
2022/11/10 10:41:43;;;;;;;1.63;1.07;;;23.60;91.60;;;;;;5027368;28;20483;-42
2022/11/10 10:44:14;;;;;;;3.53;1.47;;;23.60;91.60;;;;;;5031031;28;20446;-46
2022/11/10 10:46:46;;;;;;;2.20;1.03;;;23.60;91.50;;;;;;5029055;28;20489;-42
2022/11/10 10:49:17;;;;;;;3.00;1.00;;;23.60;91.30;;;;;;5026074;28;20470;-42
2022/11/10 10:51:44;;;;;;;5.97;1.70;;;23.50;91.20;;;;;;5027859;28;20482;-46
2022/11/10 10:54:24;;;;;;;4.93;1.73;;;23.60;90.40;;;;;;5025371;28;20462;-43
2022/11/10 10:57:01;;;;;;;7.23;1.60;;;23.50;90.30;;;;;;5021794;28;20458;-42
2022/11/10 10:59:30;;;;;;;8.67;2.60;;;23.50;90.30;;;;;;5027459;28;20458;-29
2022/11/10 11:01:57;;;;;;;9.55;2.50;;;21.20;85.40;;;;;;5022890;28;20474;-36
2022/11/10 11:04:30;;;;;;;8.13;3.20;;;19.90;90.60;;;;;;5021878;28;20605;-32
2022/11/10 11:06:58;;;;;;;10.10;3.30;;;19.80;92.30;;;;;;5022876;28;20200;-35
2022/11/10 11:09:27;;;;;;;9.18;2.55;;;19.40;92.10;;;;;;5021005;28;20192;-30
2022/11/10 11:12:02;;;;;;;10.00;2.35;;;19.10;93.10;;;;;;5020307;28;20545;-30
2022/11/10 11:14:31;;;;;;;9.00;2.60;;;19.00;93.10;;;;;;5026979;28;20198;-30
2022/11/10 11:17:00;;;;;;;12.82;2.85;;;19.00;94.40;;;;;;5030708;28;20219;-32
2022/11/10 11:19:29;;;;;;;9.68;2.53;;;19.30;93.10;;;;;;5029358;28;20211;-35
2022/11/10 11:22:23;;;;;;;8.60;2.08;;;19.20;93.40;;;;;;5017535;28;20238;-29
2022/11/10 11:24:59;;;;;;;10.90;2.95;;;19.00;93.70;;;;;;5021045;28;20261;-30
2022/11/10 11:27:34;;;;;;;12.82;3.85;;;18.80;93.80;;;;;;5036192;28;20195;-30
2022/11/10 11:30:12;;;;;;;5.68;2.00;;;18.70;94.60;;;;;;5019996;28;20508;-30
2022/11/10 11:32:57;;;;;;;6.15;2.38;;;18.70;95.40;;;;;;5027551;28;20196;-32
2022/11/10 11:35:31;;;;;;;15.07;2.25;;;18.80;94.80;;;;;;5023392;28;20208;-30
2022/11/10 11:38:08;;;;;;;7.40;2.72;;;18.50;94.50;;;;;;5028423;28;20607;-30
2022/11/10 11:40:49;;;;;;;9.13;2.45;;;18.60;94.10;;;;;;5031194;28;20230;-29
2022/11/10 11:43:29;;;;;;;9.48;2.70;;;18.50;95.00;;;;;;5025337;28;20207;-38
2022/11/10 11:46:06;;;;;;;8.13;2.67;;;18.70;96.10;;;;;;5021915;28;20191;-30
2022/11/10 11:48:44;;;;;;;12.30;2.40;;;18.70;95.20;;;;;;5024490;28;20215;-34
2022/11/10 11:51:18;;;;;;;13.35;2.33;;;18.60;95.60;;;;;;5026098;28;20212;-36
2022/11/10 11:54:02;;;;;;;5.93;2.08;;;18.50;95.50;;;;;;5025347;28;20200;-40
2022/11/10 11:56:33;;;;;;;10.52;2.88;;;18.70;95.70;;;;;;5026099;28;20202;-37
2022/11/10 11:59:13;;;;;;;10.45;2.50;;;18.70;96.20;;;;;;5023527;28;20214;-35
2022/11/10 12:01:55;;;;;;;6.38;2.00;;;18.60;95.70;;;;;;5028762;28;20219;-33
2022/11/10 12:04:44;;;;;;;11.27;3.13;;;18.60;95.30;;;;;;5025784;28;20544;-32
2022/11/10 12:07:24;;;;;;;5.80;2.67;;;18.60;95.20;;;;;;5018469;28;20196;-33
2022/11/10 12:09:57;;;;;;;6.47;2.13;;;18.70;94.80;;;;;;5018690;28;20638;-37
2022/11/10 12:12:46;;;;;;;5.57;2.00;;;18.70;95.40;;;;;;5019787;28;20206;-32
2022/11/10 12:15:26;;;;;;;9.27;2.58;;;18.60;95.70;;;;;;5018106;28;20555;-31
2022/11/10 12:18:03;;;;;;;6.93;2.22;;;18.80;96.00;;;;;;5017363;28;20230;-29
2022/11/10 12:20:43;;;;;;;9.02;2.60;;;18.60;96.70;;;;;;5018849;28;20301;-31
2022/11/10 12:23:16;;;;;;;8.73;2.40;;;18.40;97.20;;;;;;5016198;28;20202;-34
2022/11/10 12:25:50;;;;;;;10.20;2.95;;;18.50;96.00;;;;;;5017437;28;20199;-31
2022/11/10 12:28:21;;;;;;;7.82;1.70;;;18.60;96.60;;;;;;5021653;28;20296;-36
2022/11/10 12:30:52;;;;;;;10.85;2.20;;;18.40;96.50;;;;;;5021525;28;20617;-43
2022/11/10 12:33:33;;;;;;;3.53;1.40;;;19.10;98.60;;;;;;5021459;28;20257;-46
2022/11/10 12:36:03;;;;;;;3.40;1.25;;;19.80;99.50;;;;;;5028067;28;20195;-49
2022/11/10 12:38:41;;;;;;;5.43;1.52;;;20.40;98.70;;;;;;5024031;28;20192;-45
2022/11/10 12:41:11;;;;;;;4.05;1.95;;;20.70;98.40;;;;;;5027966;28;20238;-46
2022/11/10 12:43:42;;;;;;;4.28;2.08;;;21.00;97.20;;;;;;5023393;28;20203;-40
2022/11/10 12:46:12;;;;;;;4.35;2.00;;;21.10;96.00;;;;;;5024363;28;20196;-40
2022/11/10 12:48:53;;;;;;;4.93;1.60;;;21.30;95.60;;;;;;5027428;28;20198;-43
2022/11/10 12:51:24;;;;;;;2.93;1.30;;;21.40;95.30;;;;;;5023092;28;20218;-47
2022/11/10 12:53:52;;;;;;;2.35;1.27;;;21.50;95.50;;;;;;5024748;28;20833;-41
2022/11/10 12:56:23;;;;;;;3.23;1.37;;;21.60;95.40;;;;;;5026260;28;20598;-40
2022/11/10 12:59:20;;;;;;;4.37;1.10;;;21.80;95.80;;;;;;5026705;28;20811;-43
2022/11/10 13:01:49;;;;;;;5.73;1.40;;;21.80;95.70;;;;;;5016234;28;20847;-45
2022/11/10 13:04:18;;;;;;;4.20;1.60;;;21.90;95.50;;;;;;5026461;28;20458;-44
2022/11/10 13:06:48;;;;;;;2.57;1.60;;;22.00;95.50;;;;;;5017656;28;20482;-41
2022/11/10 13:09:27;;;;;;;2.53;1.77;;;22.00;95.40;;;;;;5018481;28;20534;-41
2022/11/10 13:12:19;;;;;;;2.57;1.40;;;22.10;95.40;;;;;;5025515;28;20865;-43